sensor_id;sensor_type;location;lat;lon;timestamp;temperature;humidity
4052;DHT22;2040;50.924;11.604;2023-11-21T00:00:44;6.80;99.90
4052;DHT22;2040;50.924;11.604;2023-11-21T00:03:11;6.70;99.90
4052;DHT22;2040;50.924;11.604;2023-11-21T00:05:40;6.80;99.90
4052;DHT22;2040;50.924;11.604;2023-11-21T00:08:09;6.80;99.90
4052;DHT22;2040;50.924;11.604;2023-11-21T00:10:36;6.70;99.90
4052;DHT22;2040;50.924;11.604;2023-11-21T00:13:04;6.60;99.90
4052;DHT22;2040;50.924;11.604;2023-11-21T00:15:29;6.50;99.90
4052;DHT22;2040;50.924;11.604;2023-11-21T00:17:55;6.50;99.90
4052;DHT22;2040;50.924;11.604;2023-11-21T00:20:20;6.40;99.90
4052;DHT22;2040;50.924;11.604;2023-11-21T00:22:46;6.40;99.90
4052;DHT22;2040;50.924;11.604;2023-11-21T00:25:13;6.40;99.90
4052;DHT22;2040;50.924;11.604;2023-11-21T00:27:42;6.30;99.90
4052;DHT22;2040;50.924;11.604;2023-11-21T00:30:08;6.30;99.90
4052;DHT22;2040;50.924;11.604;2023-11-21T00:32:35;6.30;99.90
4052;DHT22;2040;50.924;11.604;2023-11-21T00:35:02;6.30;99.90
4052;DHT22;2040;50.924;11.604;2023-11-21T00:37:27;6.30;99.90
4052;DHT22;2040;50.924;11.604;2023-11-21T00:39:53;6.30;99.90
4052;DHT22;2040;50.924;11.604;2023-11-21T00:42:18;6.40;99.90
4052;DHT22;2040;50.924;11.604;2023-11-21T00:44:44;6.30;99.90
4052;DHT22;2040;50.924;11.604;2023-11-21T00:47:09;6.40;99.90
4052;DHT22;2040;50.924;11.604;2023-11-21T00:49:35;6.30;99.90
4052;DHT22;2040;50.924;11.604;2023-11-21T00:52:00;6.30;99.90
4052;DHT22;2040;50.924;11.604;2023-11-21T00:54:27;6.30;99.90
4052;DHT22;2040;50.924;11.604;2023-11-21T00:56:53;6.30;99.90
4052;DHT22;2040;50.924;11.604;2023-11-21T00:59:18;6.20;99.90
4052;DHT22;2040;50.924;11.604;2023-11-21T01:01:44;6.30;99.90
4052;DHT22;2040;50.924;11.604;2023-11-21T01:04:09;6.30;99.90
4052;DHT22;2040;50.924;11.604;2023-11-21T01:06:35;6.20;99.90
4052;DHT22;2040;50.924;11.604;2023-11-21T01:09:01;6.20;99.90
4052;DHT22;2040;50.924;11.604;2023-11-21T01:11:29;6.20;99.90
4052;DHT22;2040;50.924;11.604;2023-11-21T01:13:54;6.20;99.90
4052;DHT22;2040;50.924;11.604;2023-11-21T01:16:20;6.20;99.90
4052;DHT22;2040;50.924;11.604;2023-11-21T01:18:46;6.30;99.90
4052;DHT22;2040;50.924;11.604;2023-11-21T01:21:11;6.30;99.90
4052;DHT22;2040;50.924;11.604;2023-11-21T01:23:37;6.30;99.90
4052;DHT22;2040;50.924;11.604;2023-11-21T01:26:03;6.40;99.90
4052;DHT22;2040;50.924;11.604;2023-11-21T01:28:28;6.40;99.90
4052;DHT22;2040;50.924;11.604;2023-11-21T01:30:54;6.30;99.90
4052;DHT22;2040;50.924;11.604;2023-11-21T01:33:22;6.30;99.90
4052;DHT22;2040;50.924;11.604;2023-11-21T01:35:50;6.30;99.90
4052;DHT22;2040;50.924;11.604;2023-11-21T01:38:16;6.30;99.90
4052;DHT22;2040;50.924;11.604;2023-11-21T01:40:42;6.30;99.90
4052;DHT22;2040;50.924;11.604;2023-11-21T01:43:08;6.30;99.90
4052;DHT22;2040;50.924;11.604;2023-11-21T01:45:34;6.40;99.90
4052;DHT22;2040;50.924;11.604;2023-11-21T01:48:00;6.40;99.90
4052;DHT22;2040;50.924;11.604;2023-11-21T01:50:26;6.50;99.90
4052;DHT22;2040;50.924;11.604;2023-11-21T01:52:52;6.40;99.90
4052;DHT22;2040;50.924;11.604;2023-11-21T01:55:19;6.40;99.90
4052;DHT22;2040;50.924;11.604;2023-11-21T01:57:45;6.40;99.90
4052;DHT22;2040;50.924;11.604;2023-11-21T02:00:12;6.40;99.90
4052;DHT22;2040;50.924;11.604;2023-11-21T02:02:45;6.30;99.90
4052;DHT22;2040;50.924;11.604;2023-11-21T02:05:11;6.30;99.90
4052;DHT22;2040;50.924;11.604;2023-11-21T02:07:41;6.30;99.90
4052;DHT22;2040;50.924;11.604;2023-11-21T02:10:08;6.50;99.90
4052;DHT22;2040;50.924;11.604;2023-11-21T02:12:34;6.60;99.90
4052;DHT22;2040;50.924;11.604;2023-11-21T02:15:02;6.60;99.90
4052;DHT22;2040;50.924;11.604;2023-11-21T02:17:30;6.50;99.90
4052;DHT22;2040;50.924;11.604;2023-11-21T02:19:58;6.50;99.90
4052;DHT22;2040;50.924;11.604;2023-11-21T02:22:26;6.40;99.90
4052;DHT22;2040;50.924;11.604;2023-11-21T02:24:56;6.30;99.90
4052;DHT22;2040;50.924;11.604;2023-11-21T02:27:23;6.30;99.90
4052;DHT22;2040;50.924;11.604;2023-11-21T02:29:49;6.30;99.90
4052;DHT22;2040;50.924;11.604;2023-11-21T02:32:15;6.30;99.90
4052;DHT22;2040;50.924;11.604;2023-11-21T02:34:42;6.30;99.90
4052;DHT22;2040;50.924;11.604;2023-11-21T02:37:09;6.40;99.90
4052;DHT22;2040;50.924;11.604;2023-11-21T02:39:35;6.30;99.90
4052;DHT22;2040;50.924;11.604;2023-11-21T02:42:01;6.30;99.90
4052;DHT22;2040;50.924;11.604;2023-11-21T02:44:26;6.20;99.90
4052;DHT22;2040;50.924;11.604;2023-11-21T02:46:52;6.20;99.90
4052;DHT22;2040;50.924;11.604;2023-11-21T02:49:17;6.20;99.90
4052;DHT22;2040;50.924;11.604;2023-11-21T02:51:43;6.30;99.90
4052;DHT22;2040;50.924;11.604;2023-11-21T02:54:08;6.30;99.90
4052;DHT22;2040;50.924;11.604;2023-11-21T02:56:34;6.30;99.90
4052;DHT22;2040;50.924;11.604;2023-11-21T02:59:00;6.30;99.90
4052;DHT22;2040;50.924;11.604;2023-11-21T03:01:26;6.40;99.90
4052;DHT22;2040;50.924;11.604;2023-11-21T03:03:53;6.40;99.90
4052;DHT22;2040;50.924;11.604;2023-11-21T03:06:20;6.40;99.90
4052;DHT22;2040;50.924;11.604;2023-11-21T03:08:46;6.30;99.90
4052;DHT22;2040;50.924;11.604;2023-11-21T03:11:13;6.30;99.90
4052;DHT22;2040;50.924;11.604;2023-11-21T03:13:39;6.30;99.90
4052;DHT22;2040;50.924;11.604;2023-11-21T03:16:09;6.30;99.90
4052;DHT22;2040;50.924;11.604;2023-11-21T03:18:36;6.40;99.90
4052;DHT22;2040;50.924;11.604;2023-11-21T03:21:01;6.40;99.90
4052;DHT22;2040;50.924;11.604;2023-11-21T03:23:28;6.40;99.90
4052;DHT22;2040;50.924;11.604;2023-11-21T03:25:53;6.40;99.90
4052;DHT22;2040;50.924;11.604;2023-11-21T03:28:19;6.40;99.90
4052;DHT22;2040;50.924;11.604;2023-11-21T03:30:44;6.40;99.90
4052;DHT22;2040;50.924;11.604;2023-11-21T03:33:10;6.40;99.90
4052;DHT22;2040;50.924;11.604;2023-11-21T03:35:35;6.40;99.90
4052;DHT22;2040;50.924;11.604;2023-11-21T03:38:01;6.40;99.90
4052;DHT22;2040;50.924;11.604;2023-11-21T03:40:27;6.40;99.90
4052;DHT22;2040;50.924;11.604;2023-11-21T03:42:55;6.30;99.90
4052;DHT22;2040;50.924;11.604;2023-11-21T03:45:21;6.30;99.90
4052;DHT22;2040;50.924;11.604;2023-11-21T03:47:46;6.30;99.90
4052;DHT22;2040;50.924;11.604;2023-11-21T03:50:12;6.30;99.90
4052;DHT22;2040;50.924;11.604;2023-11-21T03:52:37;6.30;99.90
4052;DHT22;2040;50.924;11.604;2023-11-21T03:55:04;6.30;99.90
4052;DHT22;2040;50.924;11.604;2023-11-21T03:57:29;6.20;99.90
4052;DHT22;2040;50.924;11.604;2023-11-21T03:59:55;6.20;99.90
4052;DHT22;2040;50.924;11.604;2023-11-21T04:02:21;6.40;99.90
4052;DHT22;2040;50.924;11.604;2023-11-21T04:04:46;6.60;99.90
4052;DHT22;2040;50.924;11.604;2023-11-21T04:07:12;6.60;99.90
4052;DHT22;2040;50.924;11.604;2023-11-21T04:09:39;6.40;99.90
4052;DHT22;2040;50.924;11.604;2023-11-21T04:12:05;6.20;99.90
4052;DHT22;2040;50.924;11.604;2023-11-21T04:14:31;6.10;99.90
4052;DHT22;2040;50.924;11.604;2023-11-21T04:16:57;5.90;99.90
4052;DHT22;2040;50.924;11.604;2023-11-21T04:19:22;5.90;99.90
4052;DHT22;2040;50.924;11.604;2023-11-21T04:21:48;5.80;99.90
4052;DHT22;2040;50.924;11.604;2023-11-21T04:24:13;5.90;99.90
4052;DHT22;2040;50.924;11.604;2023-11-21T04:26:39;5.90;99.90
4052;DHT22;2040;50.924;11.604;2023-11-21T04:29:05;5.90;99.90
4052;DHT22;2040;50.924;11.604;2023-11-21T04:31:31;6.00;99.90
4052;DHT22;2040;50.924;11.604;2023-11-21T04:33:57;5.70;99.90
4052;DHT22;2040;50.924;11.604;2023-11-21T04:36:22;5.60;99.90
4052;DHT22;2040;50.924;11.604;2023-11-21T04:38:48;5.50;99.90
4052;DHT22;2040;50.924;11.604;2023-11-21T04:41:13;5.50;99.90
4052;DHT22;2040;50.924;11.604;2023-11-21T04:43:39;5.80;99.90
4052;DHT22;2040;50.924;11.604;2023-11-21T04:46:05;5.70;99.90
4052;DHT22;2040;50.924;11.604;2023-11-21T04:48:30;5.50;99.90
4052;DHT22;2040;50.924;11.604;2023-11-21T04:50:56;5.40;99.90
4052;DHT22;2040;50.924;11.604;2023-11-21T04:53:21;5.50;99.90
4052;DHT22;2040;50.924;11.604;2023-11-21T04:55:47;5.40;99.90
4052;DHT22;2040;50.924;11.604;2023-11-21T04:58:14;5.30;99.90
4052;DHT22;2040;50.924;11.604;2023-11-21T05:00:39;5.20;99.90
4052;DHT22;2040;50.924;11.604;2023-11-21T05:03:06;5.40;99.90
4052;DHT22;2040;50.924;11.604;2023-11-21T05:05:32;5.50;99.90
4052;DHT22;2040;50.924;11.604;2023-11-21T05:07:59;5.50;99.90
4052;DHT22;2040;50.924;11.604;2023-11-21T05:10:25;5.50;99.90
4052;DHT22;2040;50.924;11.604;2023-11-21T05:12:50;5.60;99.90
4052;DHT22;2040;50.924;11.604;2023-11-21T05:15:16;5.60;99.90
4052;DHT22;2040;50.924;11.604;2023-11-21T05:17:45;5.40;99.90
4052;DHT22;2040;50.924;11.604;2023-11-21T05:20:12;5.30;99.90
4052;DHT22;2040;50.924;11.604;2023-11-21T05:22:39;5.30;99.90
4052;DHT22;2040;50.924;11.604;2023-11-21T05:25:05;5.10;99.90
4052;DHT22;2040;50.924;11.604;2023-11-21T05:27:32;5.00;99.90
4052;DHT22;2040;50.924;11.604;2023-11-21T05:29:58;5.00;99.90
4052;DHT22;2040;50.924;11.604;2023-11-21T05:32:25;5.00;99.90
4052;DHT22;2040;50.924;11.604;2023-11-21T05:34:51;5.00;99.90
4052;DHT22;2040;50.924;11.604;2023-11-21T05:37:17;4.90;99.90
4052;DHT22;2040;50.924;11.604;2023-11-21T05:39:43;4.90;99.90
4052;DHT22;2040;50.924;11.604;2023-11-21T05:42:08;5.00;99.90
4052;DHT22;2040;50.924;11.604;2023-11-21T05:44:36;4.90;99.90
4052;DHT22;2040;50.924;11.604;2023-11-21T05:47:02;4.80;99.90
4052;DHT22;2040;50.924;11.604;2023-11-21T05:49:29;4.70;99.90
4052;DHT22;2040;50.924;11.604;2023-11-21T05:51:56;4.70;99.90
4052;DHT22;2040;50.924;11.604;2023-11-21T05:54:22;4.60;99.90
4052;DHT22;2040;50.924;11.604;2023-11-21T05:56:49;4.50;99.90
4052;DHT22;2040;50.924;11.604;2023-11-21T05:59:15;4.50;99.90
4052;DHT22;2040;50.924;11.604;2023-11-21T06:01:40;4.40;99.90
4052;DHT22;2040;50.924;11.604;2023-11-21T06:04:06;4.70;99.90
4052;DHT22;2040;50.924;11.604;2023-11-21T06:06:33;4.60;99.90
4052;DHT22;2040;50.924;11.604;2023-11-21T06:08:59;4.50;99.90
4052;DHT22;2040;50.924;11.604;2023-11-21T06:11:25;4.80;99.90
4052;DHT22;2040;50.924;11.604;2023-11-21T06:13:51;4.80;99.90
4052;DHT22;2040;50.924;11.604;2023-11-21T06:16:18;4.50;99.90
4052;DHT22;2040;50.924;11.604;2023-11-21T06:18:45;4.30;99.90
4052;DHT22;2040;50.924;11.604;2023-11-21T06:21:11;4.30;99.90
4052;DHT22;2040;50.924;11.604;2023-11-21T06:23:37;4.30;99.90
4052;DHT22;2040;50.924;11.604;2023-11-21T06:26:03;4.10;99.90
4052;DHT22;2040;50.924;11.604;2023-11-21T06:28:30;4.40;99.90
4052;DHT22;2040;50.924;11.604;2023-11-21T06:30:56;4.60;99.90
4052;DHT22;2040;50.924;11.604;2023-11-21T06:33:23;4.70;99.90
4052;DHT22;2040;50.924;11.604;2023-11-21T06:35:49;4.80;99.90
4052;DHT22;2040;50.924;11.604;2023-11-21T06:38:15;4.50;99.90
4052;DHT22;2040;50.924;11.604;2023-11-21T06:40:40;4.30;99.90
4052;DHT22;2040;50.924;11.604;2023-11-21T06:43:06;4.20;99.90
4052;DHT22;2040;50.924;11.604;2023-11-21T06:45:33;4.20;99.90
4052;DHT22;2040;50.924;11.604;2023-11-21T06:47:59;4.40;99.90
4052;DHT22;2040;50.924;11.604;2023-11-21T06:50:25;4.40;99.90
4052;DHT22;2040;50.924;11.604;2023-11-21T06:52:51;4.50;99.90
4052;DHT22;2040;50.924;11.604;2023-11-21T06:55:16;4.60;99.90
4052;DHT22;2040;50.924;11.604;2023-11-21T06:57:42;4.60;99.90
4052;DHT22;2040;50.924;11.604;2023-11-21T07:00:09;4.70;99.90
4052;DHT22;2040;50.924;11.604;2023-11-21T07:02:35;4.70;99.90
4052;DHT22;2040;50.924;11.604;2023-11-21T07:05:00;4.90;99.90
4052;DHT22;2040;50.924;11.604;2023-11-21T07:07:27;5.00;99.90
4052;DHT22;2040;50.924;11.604;2023-11-21T07:09:56;5.00;99.90
4052;DHT22;2040;50.924;11.604;2023-11-21T07:12:22;5.10;99.90
4052;DHT22;2040;50.924;11.604;2023-11-21T07:14:49;5.20;99.90
4052;DHT22;2040;50.924;11.604;2023-11-21T07:17:14;5.20;99.90
4052;DHT22;2040;50.924;11.604;2023-11-21T07:19:41;5.20;99.90
4052;DHT22;2040;50.924;11.604;2023-11-21T07:22:07;5.30;99.90
4052;DHT22;2040;50.924;11.604;2023-11-21T07:24:34;5.40;99.90
4052;DHT22;2040;50.924;11.604;2023-11-21T07:27:00;5.80;99.90
4052;DHT22;2040;50.924;11.604;2023-11-21T07:29:26;5.80;99.90
4052;DHT22;2040;50.924;11.604;2023-11-21T07:31:53;5.90;99.90
4052;DHT22;2040;50.924;11.604;2023-11-21T07:34:20;5.90;99.90
4052;DHT22;2040;50.924;11.604;2023-11-21T07:36:46;6.00;99.90
4052;DHT22;2040;50.924;11.604;2023-11-21T07:39:11;5.90;99.90
4052;DHT22;2040;50.924;11.604;2023-11-21T07:41:37;5.90;99.90
4052;DHT22;2040;50.924;11.604;2023-11-21T07:44:10;5.80;99.90
4052;DHT22;2040;50.924;11.604;2023-11-21T07:46:35;5.90;99.90
4052;DHT22;2040;50.924;11.604;2023-11-21T07:49:01;5.90;99.90
4052;DHT22;2040;50.924;11.604;2023-11-21T07:51:27;5.90;99.90
4052;DHT22;2040;50.924;11.604;2023-11-21T07:53:52;5.90;99.90
4052;DHT22;2040;50.924;11.604;2023-11-21T07:56:18;6.00;99.90
4052;DHT22;2040;50.924;11.604;2023-11-21T07:58:43;6.00;99.90
4052;DHT22;2040;50.924;11.604;2023-11-21T08:01:10;6.00;99.90
4052;DHT22;2040;50.924;11.604;2023-11-21T08:03:35;6.00;99.90
4052;DHT22;2040;50.924;11.604;2023-11-21T08:06:01;6.20;99.90
4052;DHT22;2040;50.924;11.604;2023-11-21T08:08:29;6.30;99.90
4052;DHT22;2040;50.924;11.604;2023-11-21T08:10:55;6.30;99.90
4052;DHT22;2040;50.924;11.604;2023-11-21T08:13:27;6.30;99.90
4052;DHT22;2040;50.924;11.604;2023-11-21T08:15:57;6.10;99.90
4052;DHT22;2040;50.924;11.604;2023-11-21T08:18:27;6.10;99.90
4052;DHT22;2040;50.924;11.604;2023-11-21T08:20:53;6.20;99.90
4052;DHT22;2040;50.924;11.604;2023-11-21T08:23:21;6.20;99.90
4052;DHT22;2040;50.924;11.604;2023-11-21T08:25:50;6.30;99.90
4052;DHT22;2040;50.924;11.604;2023-11-21T08:28:16;6.30;99.90
4052;DHT22;2040;50.924;11.604;2023-11-21T08:30:41;6.30;99.90
4052;DHT22;2040;50.924;11.604;2023-11-21T08:33:07;6.20;99.90
4052;DHT22;2040;50.924;11.604;2023-11-21T08:35:34;6.20;99.90
4052;DHT22;2040;50.924;11.604;2023-11-21T08:38:00;6.20;99.90
4052;DHT22;2040;50.924;11.604;2023-11-21T08:40:25;6.10;99.90
4052;DHT22;2040;50.924;11.604;2023-11-21T08:42:51;6.10;99.90
4052;DHT22;2040;50.924;11.604;2023-11-21T08:45:18;6.20;99.90
4052;DHT22;2040;50.924;11.604;2023-11-21T08:47:45;6.10;99.90
4052;DHT22;2040;50.924;11.604;2023-11-21T08:50:13;6.10;99.90
4052;DHT22;2040;50.924;11.604;2023-11-21T08:52:40;6.10;99.90
4052;DHT22;2040;50.924;11.604;2023-11-21T08:55:08;6.20;99.90
4052;DHT22;2040;50.924;11.604;2023-11-21T08:57:38;6.20;99.90
4052;DHT22;2040;50.924;11.604;2023-11-21T09:00:04;6.20;99.90
4052;DHT22;2040;50.924;11.604;2023-11-21T09:02:33;6.20;99.90
4052;DHT22;2040;50.924;11.604;2023-11-21T09:04:59;6.30;99.90
4052;DHT22;2040;50.924;11.604;2023-11-21T09:07:28;6.20;99.90
4052;DHT22;2040;50.924;11.604;2023-11-21T09:09:54;6.20;99.90
4052;DHT22;2040;50.924;11.604;2023-11-21T09:12:20;6.20;99.90
4052;DHT22;2040;50.924;11.604;2023-11-21T09:14:46;6.20;99.90
4052;DHT22;2040;50.924;11.604;2023-11-21T09:17:12;6.30;99.90
4052;DHT22;2040;50.924;11.604;2023-11-21T09:19:38;6.40;99.90
4052;DHT22;2040;50.924;11.604;2023-11-21T09:22:04;6.40;99.90
4052;DHT22;2040;50.924;11.604;2023-11-21T09:24:31;6.40;99.90
4052;DHT22;2040;50.924;11.604;2023-11-21T09:26:57;6.40;99.90
4052;DHT22;2040;50.924;11.604;2023-11-21T09:29:23;6.40;99.90
4052;DHT22;2040;50.924;11.604;2023-11-21T09:31:48;6.40;99.90
4052;DHT22;2040;50.924;11.604;2023-11-21T09:34:16;6.40;99.90
4052;DHT22;2040;50.924;11.604;2023-11-21T09:36:45;6.40;99.90
4052;DHT22;2040;50.924;11.604;2023-11-21T09:39:11;6.50;99.90
4052;DHT22;2040;50.924;11.604;2023-11-21T09:41:52;6.50;99.90
4052;DHT22;2040;50.924;11.604;2023-11-21T09:44:35;6.50;99.90
4052;DHT22;2040;50.924;11.604;2023-11-21T09:47:02;6.60;99.90
4052;DHT22;2040;50.924;11.604;2023-11-21T09:49:28;6.60;99.90
4052;DHT22;2040;50.924;11.604;2023-11-21T09:52:01;6.70;99.90
4052;DHT22;2040;50.924;11.604;2023-11-21T09:54:29;6.70;99.90
4052;DHT22;2040;50.924;11.604;2023-11-21T09:56:57;6.70;99.90
4052;DHT22;2040;50.924;11.604;2023-11-21T09:59:23;6.70;99.90
4052;DHT22;2040;50.924;11.604;2023-11-21T10:01:49;6.70;99.90
4052;DHT22;2040;50.924;11.604;2023-11-21T10:04:15;6.80;99.90
4052;DHT22;2040;50.924;11.604;2023-11-21T10:06:43;6.90;99.90
4052;DHT22;2040;50.924;11.604;2023-11-21T10:09:12;6.80;99.90
4052;DHT22;2040;50.924;11.604;2023-11-21T10:11:43;6.80;99.90
4052;DHT22;2040;50.924;11.604;2023-11-21T10:14:12;6.80;99.90
4052;DHT22;2040;50.924;11.604;2023-11-21T10:16:40;7.00;99.90
4052;DHT22;2040;50.924;11.604;2023-11-21T10:19:06;7.00;99.90
4052;DHT22;2040;50.924;11.604;2023-11-21T10:21:33;7.00;99.90
4052;DHT22;2040;50.924;11.604;2023-11-21T10:23:59;6.90;99.90
4052;DHT22;2040;50.924;11.604;2023-11-21T10:26:28;6.90;99.90
4052;DHT22;2040;50.924;11.604;2023-11-21T10:29:01;6.80;99.90
4052;DHT22;2040;50.924;11.604;2023-11-21T10:31:30;6.80;99.90
4052;DHT22;2040;50.924;11.604;2023-11-21T10:34:13;6.80;99.90
4052;DHT22;2040;50.924;11.604;2023-11-21T10:36:39;6.90;99.90
4052;DHT22;2040;50.924;11.604;2023-11-21T10:39:04;6.80;99.90
4052;DHT22;2040;50.924;11.604;2023-11-21T10:41:32;6.90;99.90
4052;DHT22;2040;50.924;11.604;2023-11-21T10:43:58;6.90;99.90
4052;DHT22;2040;50.924;11.604;2023-11-21T10:46:24;6.80;99.90
4052;DHT22;2040;50.924;11.604;2023-11-21T10:48:54;6.90;99.90
4052;DHT22;2040;50.924;11.604;2023-11-21T10:51:21;6.90;99.90
4052;DHT22;2040;50.924;11.604;2023-11-21T10:53:47;6.90;99.90
4052;DHT22;2040;50.924;11.604;2023-11-21T10:56:17;6.90;99.90
4052;DHT22;2040;50.924;11.604;2023-11-21T10:58:48;7.00;99.90
4052;DHT22;2040;50.924;11.604;2023-11-21T11:01:15;7.00;99.90
4052;DHT22;2040;50.924;11.604;2023-11-21T11:03:43;7.00;99.90
4052;DHT22;2040;50.924;11.604;2023-11-21T11:06:09;7.00;99.90
4052;DHT22;2040;50.924;11.604;2023-11-21T11:08:40;7.10;99.90
4052;DHT22;2040;50.924;11.604;2023-11-21T11:11:06;7.10;99.90
4052;DHT22;2040;50.924;11.604;2023-11-21T11:13:32;7.10;99.90
4052;DHT22;2040;50.924;11.604;2023-11-21T11:16:00;7.20;99.90
4052;DHT22;2040;50.924;11.604;2023-11-21T11:18:32;7.20;99.90
4052;DHT22;2040;50.924;11.604;2023-11-21T11:21:10;7.10;99.90
4052;DHT22;2040;50.924;11.604;2023-11-21T11:26:32;7.20;99.90
4052;DHT22;2040;50.924;11.604;2023-11-21T11:29:27;7.10;99.90
4052;DHT22;2040;50.924;11.604;2023-11-21T11:32:21;7.10;99.90
4052;DHT22;2040;50.924;11.604;2023-11-21T11:35:26;7.20;99.90
4052;DHT22;2040;50.924;11.604;2023-11-21T11:37:44;7.20;99.90
4052;DHT22;2040;50.924;11.604;2023-11-21T11:40:13;7.20;99.90
4052;DHT22;2040;50.924;11.604;2023-11-21T11:42:38;7.30;99.90
4052;DHT22;2040;50.924;11.604;2023-11-21T11:45:19;7.20;99.90
4052;DHT22;2040;50.924;11.604;2023-11-21T11:47:47;7.20;99.90
4052;DHT22;2040;50.924;11.604;2023-11-21T11:50:13;7.20;99.90
4052;DHT22;2040;50.924;11.604;2023-11-21T11:52:49;7.20;99.90
4052;DHT22;2040;50.924;11.604;2023-11-21T11:55:21;7.10;99.90
4052;DHT22;2040;50.924;11.604;2023-11-21T11:57:53;7.10;99.90
4052;DHT22;2040;50.924;11.604;2023-11-21T12:02:57;7.00;99.90
4052;DHT22;2040;50.924;11.604;2023-11-21T12:05:25;6.90;99.90
4052;DHT22;2040;50.924;11.604;2023-11-21T12:07:57;7.00;99.90
4052;DHT22;2040;50.924;11.604;2023-11-21T12:10:25;6.90;99.90
4052;DHT22;2040;50.924;11.604;2023-11-21T12:12:56;6.80;99.90
4052;DHT22;2040;50.924;11.604;2023-11-21T12:15:22;6.90;99.90
4052;DHT22;2040;50.924;11.604;2023-11-21T12:17:49;6.90;99.90
4052;DHT22;2040;50.924;11.604;2023-11-21T12:20:19;6.90;99.90
4052;DHT22;2040;50.924;11.604;2023-11-21T12:22:53;6.90;99.90
4052;DHT22;2040;50.924;11.604;2023-11-21T12:25:21;6.80;99.90
4052;DHT22;2040;50.924;11.604;2023-11-21T12:27:51;6.70;99.90
4052;DHT22;2040;50.924;11.604;2023-11-21T12:30:22;6.80;99.90
4052;DHT22;2040;50.924;11.604;2023-11-21T12:32:52;6.80;99.90
4052;DHT22;2040;50.924;11.604;2023-11-21T12:35:19;6.70;99.90
4052;DHT22;2040;50.924;11.604;2023-11-21T12:37:47;6.60;99.90
4052;DHT22;2040;50.924;11.604;2023-11-21T12:40:14;6.60;99.90
4052;DHT22;2040;50.924;11.604;2023-11-21T12:42:44;6.50;99.90
4052;DHT22;2040;50.924;11.604;2023-11-21T12:47:43;6.40;99.90
4052;DHT22;2040;50.924;11.604;2023-11-21T12:50:10;6.50;99.90
4052;DHT22;2040;50.924;11.604;2023-11-21T12:52:45;6.40;99.90
4052;DHT22;2040;50.924;11.604;2023-11-21T12:55:18;6.40;99.90
4052;DHT22;2040;50.924;11.604;2023-11-21T12:57:48;6.30;99.90
4052;DHT22;2040;50.924;11.604;2023-11-21T13:00:18;6.30;99.90
4052;DHT22;2040;50.924;11.604;2023-11-21T13:02:57;6.20;99.90
4052;DHT22;2040;50.924;11.604;2023-11-21T13:05:36;6.10;99.90
4052;DHT22;2040;50.924;11.604;2023-11-21T13:08:05;6.00;99.90
4052;DHT22;2040;50.924;11.604;2023-11-21T13:10:34;5.90;99.90
4052;DHT22;2040;50.924;11.604;2023-11-21T13:13:06;6.00;99.90
4052;DHT22;2040;50.924;11.604;2023-11-21T13:15:34;5.90;99.90
4052;DHT22;2040;50.924;11.604;2023-11-21T13:18:02;5.90;99.90
4052;DHT22;2040;50.924;11.604;2023-11-21T13:20:28;5.80;99.90
4052;DHT22;2040;50.924;11.604;2023-11-21T13:22:58;5.80;99.90
4052;DHT22;2040;50.924;11.604;2023-11-21T13:25:28;5.80;99.90
4052;DHT22;2040;50.924;11.604;2023-11-21T13:27:58;5.80;99.90
4052;DHT22;2040;50.924;11.604;2023-11-21T13:30:27;5.70;99.90
4052;DHT22;2040;50.924;11.604;2023-11-21T13:32:59;5.70;99.90
4052;DHT22;2040;50.924;11.604;2023-11-21T13:35:28;5.60;99.90
4052;DHT22;2040;50.924;11.604;2023-11-21T13:38:07;5.60;99.90
4052;DHT22;2040;50.924;11.604;2023-11-21T13:40:34;5.60;99.90
4052;DHT22;2040;50.924;11.604;2023-11-21T13:43:05;5.50;99.90
4052;DHT22;2040;50.924;11.604;2023-11-21T13:45:38;5.40;99.90
4052;DHT22;2040;50.924;11.604;2023-11-21T13:48:08;5.40;99.90
4052;DHT22;2040;50.924;11.604;2023-11-21T13:50:43;5.30;99.90
4052;DHT22;2040;50.924;11.604;2023-11-21T13:53:26;5.30;99.90
4052;DHT22;2040;50.924;11.604;2023-11-21T13:55:53;5.30;99.90
4052;DHT22;2040;50.924;11.604;2023-11-21T13:58:26;5.30;99.90
4052;DHT22;2040;50.924;11.604;2023-11-21T14:01:07;5.30;99.90
4052;DHT22;2040;50.924;11.604;2023-11-21T14:03:42;5.30;99.90
4052;DHT22;2040;50.924;11.604;2023-11-21T14:06:17;5.20;99.90
4052;DHT22;2040;50.924;11.604;2023-11-21T14:08:50;5.20;99.90
4052;DHT22;2040;50.924;11.604;2023-11-21T14:11:15;5.30;99.90
4052;DHT22;2040;50.924;11.604;2023-11-21T14:13:44;5.30;99.90
4052;DHT22;2040;50.924;11.604;2023-11-21T14:16:13;5.30;99.90
4052;DHT22;2040;50.924;11.604;2023-11-21T14:18:40;5.30;99.90
4052;DHT22;2040;50.924;11.604;2023-11-21T14:21:21;5.30;99.90
4052;DHT22;2040;50.924;11.604;2023-11-21T14:23:47;5.30;99.90
4052;DHT22;2040;50.924;11.604;2023-11-21T14:26:13;5.30;99.90
4052;DHT22;2040;50.924;11.604;2023-11-21T14:28:40;5.20;99.90
4052;DHT22;2040;50.924;11.604;2023-11-21T14:31:07;5.20;99.90
4052;DHT22;2040;50.924;11.604;2023-11-21T14:33:33;5.10;99.90
4052;DHT22;2040;50.924;11.604;2023-11-21T14:35:59;5.00;99.90
4052;DHT22;2040;50.924;11.604;2023-11-21T14:38:24;4.90;99.90
4052;DHT22;2040;50.924;11.604;2023-11-21T14:40:50;4.90;99.90
4052;DHT22;2040;50.924;11.604;2023-11-21T14:43:16;4.90;99.90
4052;DHT22;2040;50.924;11.604;2023-11-21T14:45:44;4.80;99.90
4052;DHT22;2040;50.924;11.604;2023-11-21T14:48:09;4.80;99.90
4052;DHT22;2040;50.924;11.604;2023-11-21T14:50:42;4.80;99.90
4052;DHT22;2040;50.924;11.604;2023-11-21T14:53:08;4.70;99.90
4052;DHT22;2040;50.924;11.604;2023-11-21T14:55:35;4.70;99.90
4052;DHT22;2040;50.924;11.604;2023-11-21T14:58:16;4.70;99.90
4052;DHT22;2040;50.924;11.604;2023-11-21T15:00:52;4.60;99.90
4052;DHT22;2040;50.924;11.604;2023-11-21T15:03:22;4.60;99.90
4052;DHT22;2040;50.924;11.604;2023-11-21T15:06:07;4.60;99.90
4052;DHT22;2040;50.924;11.604;2023-11-21T15:08:53;4.60;99.90
4052;DHT22;2040;50.924;11.604;2023-11-21T15:11:35;4.60;99.90
4052;DHT22;2040;50.924;11.604;2023-11-21T15:14:02;4.60;99.90
4052;DHT22;2040;50.924;11.604;2023-11-21T15:16:34;4.60;99.90
4052;DHT22;2040;50.924;11.604;2023-11-21T15:19:04;4.60;99.90
4052;DHT22;2040;50.924;11.604;2023-11-21T15:21:30;4.60;99.90
4052;DHT22;2040;50.924;11.604;2023-11-21T15:23:57;4.60;99.90
4052;DHT22;2040;50.924;11.604;2023-11-21T15:26:23;4.50;99.90
4052;DHT22;2040;50.924;11.604;2023-11-21T15:28:49;4.50;99.90
4052;DHT22;2040;50.924;11.604;2023-11-21T15:31:14;4.50;99.90
4052;DHT22;2040;50.924;11.604;2023-11-21T15:33:42;4.40;99.90
4052;DHT22;2040;50.924;11.604;2023-11-21T15:36:08;4.30;99.90
4052;DHT22;2040;50.924;11.604;2023-11-21T15:38:36;4.30;99.90
4052;DHT22;2040;50.924;11.604;2023-11-21T15:41:03;4.30;99.90
4052;DHT22;2040;50.924;11.604;2023-11-21T15:43:28;4.30;99.90
4052;DHT22;2040;50.924;11.604;2023-11-21T15:45:54;4.30;99.90
4052;DHT22;2040;50.924;11.604;2023-11-21T15:48:21;4.20;99.90
4052;DHT22;2040;50.924;11.604;2023-11-21T15:50:46;4.30;99.90
4052;DHT22;2040;50.924;11.604;2023-11-21T15:53:13;4.30;99.90
4052;DHT22;2040;50.924;11.604;2023-11-21T15:55:39;4.20;99.90
4052;DHT22;2040;50.924;11.604;2023-11-21T15:58:08;4.20;99.90
4052;DHT22;2040;50.924;11.604;2023-11-21T16:00:34;4.20;99.90
4052;DHT22;2040;50.924;11.604;2023-11-21T16:03:00;4.20;99.90
4052;DHT22;2040;50.924;11.604;2023-11-21T16:05:27;4.10;99.90
4052;DHT22;2040;50.924;11.604;2023-11-21T16:07:52;4.10;99.90
4052;DHT22;2040;50.924;11.604;2023-11-21T16:10:18;4.10;99.90
4052;DHT22;2040;50.924;11.604;2023-11-21T16:12:45;4.10;99.90